createdAt,value
2023-06-15T00:02:57.809Z,23.72
2023-06-15T00:08:00.633Z,23.50
2023-06-15T00:13:03.018Z,23.50
2023-06-15T00:18:06.987Z,23.33
2023-06-15T00:23:10.106Z,23.42
2023-06-15T00:28:13.268Z,23.21
2023-06-15T00:33:15.937Z,23.15
2023-06-15T00:38:18.447Z,23.10
2023-06-15T00:43:22.181Z,23.20
2023-06-15T00:48:25.552Z,23.05
2023-06-15T00:53:28.249Z,23.09
2023-06-15T00:58:30.734Z,23.03
2023-06-15T01:03:37.084Z,23.00
2023-06-15T01:08:41.969Z,22.95
2023-06-15T01:13:45.932Z,23.10
2023-06-15T01:18:52.269Z,22.95
2023-06-15T01:24:29.541Z,23.00
2023-06-15T01:29:36.972Z,22.86
2023-06-15T01:34:40.210Z,22.96
2023-06-15T01:39:44.825Z,22.97
2023-06-15T01:44:51.584Z,22.98
2023-06-15T01:49:55.071Z,22.98
2023-06-15T01:54:57.617Z,22.98
2023-06-15T02:00:00.887Z,23.01
2023-06-15T02:05:07.840Z,22.72
2023-06-15T02:10:11.507Z,23.26
2023-06-15T02:15:15.967Z,23.09
2023-06-15T02:20:18.803Z,23.35
2023-06-15T02:25:21.429Z,23.35
2023-06-15T02:30:26.543Z,23.51
2023-06-15T02:35:29.787Z,23.76
2023-06-15T02:40:32.507Z,24.03
2023-06-15T02:45:35.059Z,24.19
2023-06-15T02:50:37.837Z,24.27
2023-06-15T02:55:48.351Z,24.53
2023-06-15T03:00:55.050Z,24.88
2023-06-15T03:06:20.230Z,25.32
2023-06-15T03:11:24.430Z,25.37
2023-06-15T03:16:28.310Z,25.53
2023-06-15T03:21:33.173Z,25.83
2023-06-15T03:26:38.821Z,26.05
2023-06-15T03:31:44.342Z,25.71
2023-06-15T03:36:46.879Z,25.83
2023-06-15T03:41:49.172Z,26.45
2023-06-15T03:46:53.824Z,27.35
2023-06-15T03:51:57.426Z,28.28
2023-06-15T03:57:00.277Z,28.95
2023-06-15T04:02:04.534Z,29.15
2023-06-15T04:07:08.163Z,29.21
2023-06-15T04:12:11.689Z,29.30
2023-06-15T04:17:15.430Z,29.34
2023-06-15T04:22:18.386Z,29.87
2023-06-15T04:27:21.160Z,29.98
2023-06-15T04:32:27.154Z,30.22
2023-06-15T04:37:30.303Z,30.43
2023-06-15T04:42:35.159Z,31.43
2023-06-15T04:47:43.575Z,31.50
2023-06-15T04:52:47.349Z,32.66
2023-06-15T04:57:50.701Z,32.54
2023-06-15T05:02:54.435Z,32.26
2023-06-15T05:07:57.955Z,33.28
2023-06-15T05:13:01.031Z,34.60
2023-06-15T05:18:04.591Z,35.58
2023-06-15T05:23:09.421Z,36.30
2023-06-15T05:28:15.389Z,37.10
2023-06-15T05:33:19.345Z,36.55
2023-06-15T05:38:25.088Z,34.81
2023-06-15T05:43:28.611Z,35.79
2023-06-15T05:48:32.381Z,36.54
2023-06-15T05:53:36.328Z,36.84
2023-06-15T05:58:40.497Z,37.17
2023-06-15T06:03:43.925Z,37.37
2023-06-15T06:08:50.301Z,38.16
2023-06-15T06:13:52.880Z,37.52
2023-06-15T06:18:55.543Z,37.27
2023-06-15T06:24:00.329Z,37.63
2023-06-15T06:29:04.929Z,37.77
2023-06-15T06:34:08.051Z,38.18
2023-06-15T06:39:10.689Z,38.43
2023-06-15T06:44:16.500Z,38.43
2023-06-15T06:49:19.691Z,38.49
2023-06-15T06:54:22.720Z,38.35
2023-06-15T06:59:42.589Z,38.55
2023-06-15T07:04:45.745Z,38.81
2023-06-15T07:09:48.833Z,38.71
2023-06-15T07:14:51.773Z,38.15
2023-06-15T07:19:55.922Z,37.68
2023-06-15T07:24:59.398Z,37.79
2023-06-15T07:30:03.004Z,37.79
2023-06-15T07:35:10.003Z,37.90
2023-06-15T07:40:14.598Z,37.98
2023-06-15T07:45:17.681Z,38.08
2023-06-15T07:50:20.747Z,37.17
2023-06-15T07:55:24.087Z,37.03
2023-06-15T08:00:26.576Z,36.63
2023-06-15T08:05:36.206Z,35.96
2023-06-15T08:10:41.337Z,35.79
2023-06-15T08:15:45.232Z,35.66
2023-06-15T08:20:50.939Z,35.23
2023-06-15T08:25:55.851Z,34.50
2023-06-15T08:30:59.711Z,33.68
2023-06-15T08:36:02.560Z,33.10
2023-06-15T08:41:06.347Z,32.66
2023-06-15T08:46:10.991Z,32.37
2023-06-15T08:51:14.177Z,31.79
2023-06-15T08:56:16.949Z,31.87
2023-06-15T09:01:25.313Z,31.71
2023-06-15T09:06:29.819Z,31.61
2023-06-15T09:11:43.391Z,31.24
2023-06-15T09:16:47.696Z,31.54
2023-06-15T09:21:53.664Z,31.60
2023-06-15T09:26:56.890Z,31.77
2023-06-15T09:32:03.139Z,31.80
2023-06-15T09:37:17.543Z,31.75
2023-06-15T09:42:27.110Z,31.76
2023-06-15T09:47:32.586Z,31.80
2023-06-15T09:52:37.846Z,31.74
2023-06-15T09:57:43.357Z,31.90
2023-06-15T10:02:48.206Z,31.72
2023-06-15T10:07:52.937Z,31.39
2023-06-15T10:12:59.309Z,31.68
2023-06-15T10:18:05.239Z,31.57
2023-06-15T10:23:18.479Z,31.49
2023-06-15T10:28:26.628Z,31.54
2023-06-15T10:33:59.650Z,31.63
2023-06-15T10:39:24.635Z,31.76
2023-06-15T10:44:34.603Z,31.76
2023-06-15T10:49:37.494Z,31.73
2023-06-15T10:54:40.487Z,31.37
2023-06-15T10:59:52.981Z,31.34
2023-06-15T11:05:06.982Z,31.25
2023-06-15T11:10:19.154Z,31.15
2023-06-15T11:15:23.350Z,31.23
2023-06-15T11:21:01.364Z,31.31
2023-06-15T11:26:04.348Z,31.31
2023-06-15T11:31:09.249Z,31.48
2023-06-15T11:36:12.817Z,31.46
2023-06-15T11:41:16.646Z,31.64
2023-06-15T11:46:24.029Z,31.75
2023-06-15T11:51:37.307Z,31.77
2023-06-15T12:04:02.094Z,31.99
2023-06-15T12:09:10.346Z,31.99
2023-06-15T12:14:19.213Z,31.97
2023-06-15T12:19:26.246Z,31.93
2023-06-15T12:24:34.420Z,31.89
2023-06-15T12:29:42.311Z,32.07
2023-06-15T12:34:54.538Z,32.12
2023-06-15T12:40:08.590Z,32.15
2023-06-15T12:45:15.172Z,32.36
2023-06-15T12:50:18.612Z,32.51
2023-06-15T12:55:22.079Z,32.67
2023-06-15T13:05:44.688Z,32.72
2023-06-15T13:10:47.906Z,32.37
2023-06-15T13:15:51.500Z,32.28
2023-06-15T13:20:57.282Z,32.03
2023-06-15T13:26:01.620Z,32.03
2023-06-15T13:31:06.280Z,31.85
2023-06-15T13:36:23.586Z,31.87
2023-06-15T13:41:32.392Z,31.89
2023-06-15T13:46:41.799Z,31.71
2023-06-15T13:51:48.083Z,31.50
2023-06-15T13:56:50.968Z,31.64
2023-06-15T14:01:56.730Z,31.55
2023-06-15T14:07:01.010Z,31.42
2023-06-15T14:12:04.328Z,31.21
2023-06-15T14:17:09.959Z,31.23
2023-06-15T14:22:13.386Z,31.32
2023-06-15T14:27:15.967Z,31.21
2023-06-15T14:32:19.033Z,31.32
2023-06-15T14:37:22.190Z,31.05
2023-06-15T14:42:29.048Z,31.31
2023-06-15T14:47:33.064Z,31.04
2023-06-15T14:52:37.922Z,31.12
2023-06-15T14:57:40.322Z,31.06
2023-06-15T15:02:43.421Z,30.95
2023-06-15T15:07:46.068Z,30.78
2023-06-15T15:12:49.618Z,30.74
2023-06-15T15:17:53.721Z,30.56
2023-06-15T15:22:58.723Z,30.49
2023-06-15T15:28:01.548Z,30.35
2023-06-15T15:33:04.723Z,30.14
2023-06-15T15:38:07.772Z,29.95
2023-06-15T15:43:10.839Z,29.84
2023-06-15T15:48:13.321Z,29.55
2023-06-15T15:53:16.874Z,29.56
2023-06-15T15:58:19.747Z,29.39
2023-06-15T16:03:24.752Z,29.36
2023-06-15T16:08:27.584Z,29.22
2023-06-15T16:13:31.233Z,29.14
2023-06-15T16:18:35.270Z,28.98
2023-06-15T16:23:38.180Z,28.89
2023-06-15T16:28:41.254Z,28.80
2023-06-15T16:33:46.522Z,28.37
2023-06-15T16:38:49.923Z,28.69
2023-06-15T16:43:53.181Z,28.56
2023-06-15T16:48:55.528Z,28.53
2023-06-15T16:53:58.504Z,28.38
2023-06-15T16:59:01.192Z,28.39
2023-06-15T17:04:03.938Z,28.33
2023-06-15T17:09:06.632Z,28.35
2023-06-15T17:14:09.529Z,28.25
2023-06-15T17:19:12.091Z,28.14
2023-06-15T17:24:14.910Z,28.02
2023-06-15T17:29:17.430Z,28.03
2023-06-15T17:34:20.094Z,27.96
2023-06-15T17:39:22.463Z,27.79
2023-06-15T17:44:24.791Z,27.79
2023-06-15T17:49:27.127Z,27.65
2023-06-15T17:54:29.571Z,27.74
2023-06-15T17:59:31.889Z,27.61
2023-06-15T18:04:34.625Z,27.59
2023-06-15T18:09:36.994Z,27.57
2023-06-15T18:14:40.544Z,27.51
2023-06-15T18:19:42.839Z,27.35
2023-06-15T18:24:45.297Z,27.22
2023-06-15T18:29:52.474Z,27.15
2023-06-15T18:34:55.765Z,26.95
2023-06-15T18:39:58.641Z,26.73
2023-06-15T18:45:01.477Z,26.62
2023-06-15T18:50:08.810Z,26.41
2023-06-15T18:55:11.542Z,26.41
2023-06-15T19:00:14.454Z,26.43
2023-06-15T19:05:17.155Z,26.34
2023-06-15T19:10:20.497Z,26.30
2023-06-15T19:15:22.893Z,26.21
2023-06-15T19:20:25.442Z,26.12
2023-06-15T19:25:27.860Z,26.16
2023-06-15T19:30:30.661Z,26.06
2023-06-15T19:35:35.582Z,25.87
2023-06-15T19:40:38.287Z,25.95
2023-06-15T19:45:41.814Z,25.87
2023-06-15T19:50:45.824Z,25.80
2023-06-15T19:55:48.842Z,25.68
2023-06-15T20:00:51.853Z,25.72
2023-06-15T20:06:00.759Z,25.58
2023-06-15T20:11:08.117Z,25.53
2023-06-15T20:16:13.891Z,25.50
2023-06-15T20:21:17.462Z,25.31
2023-06-15T20:26:21.209Z,25.29
2023-06-15T20:31:26.112Z,25.27
2023-06-15T20:36:30.407Z,25.23
2023-06-15T20:41:33.214Z,25.18
2023-06-15T20:46:36.141Z,25.15
2023-06-15T20:51:39.272Z,25.05
2023-06-15T20:56:42.212Z,25.08
2023-06-15T21:01:45.089Z,24.98
2023-06-15T21:06:49.500Z,25.00
2023-06-15T21:11:52.521Z,24.97
2023-06-15T21:16:55.097Z,24.92
2023-06-15T21:21:59.109Z,24.86
2023-06-15T21:27:02.185Z,24.85
2023-06-15T21:32:05.019Z,24.85
2023-06-15T21:37:07.622Z,24.84
2023-06-15T21:42:10.233Z,24.65
2023-06-15T21:47:12.636Z,24.84
2023-06-15T21:52:18.232Z,24.76
2023-06-15T21:57:21.338Z,24.76
2023-06-15T22:02:23.727Z,24.82
2023-06-15T22:07:28.059Z,24.92
2023-06-15T22:12:34.227Z,24.91
2023-06-15T22:17:40.477Z,24.91
2023-06-15T22:22:43.833Z,24.89
2023-06-15T22:27:47.185Z,24.87
2023-06-15T22:32:54.745Z,24.77
2023-06-15T22:37:57.369Z,24.88
2023-06-15T22:43:01.598Z,24.80
2023-06-15T22:48:05.626Z,24.93
2023-06-15T22:53:10.087Z,24.93
2023-06-15T22:58:12.498Z,24.72
2023-06-15T23:03:17.023Z,24.84
2023-06-15T23:08:22.882Z,24.78
2023-06-15T23:13:26.641Z,24.85
2023-06-15T23:18:33.594Z,24.79
2023-06-15T23:23:38.637Z,24.82
2023-06-15T23:28:41.487Z,24.82
2023-06-15T23:33:43.870Z,24.75
2023-06-15T23:38:46.236Z,24.78
2023-06-15T23:43:52.345Z,24.67
2023-06-15T23:48:55.239Z,24.70
2023-06-15T23:53:57.717Z,24.53
2023-06-15T23:59:00.974Z,24.44
